sensor_id;sensor_type;location;lat;lon;timestamp;pressure;altitude;pressure_sealevel;temperature
63158;BMP280;49381;49.338;8.794;2022-10-28T00:00:53;100992.59;;;14.55
63158;BMP280;49381;49.338;8.794;2022-10-28T00:02:54;100994.31;;;14.53
63158;BMP280;49381;49.338;8.794;2022-10-28T00:04:54;101005.34;;;14.55
63158;BMP280;49381;49.338;8.794;2022-10-28T00:06:54;101002.78;;;14.60
63158;BMP280;49381;49.338;8.794;2022-10-28T00:08:55;101001.09;;;14.55
63158;BMP280;49381;49.338;8.794;2022-10-28T00:11:04;101001.94;;;14.53
63158;BMP280;49381;49.338;8.794;2022-10-28T00:13:04;101006.19;;;14.55
63158;BMP280;49381;49.338;8.794;2022-10-28T00:15:07;101002.78;;;14.59
63158;BMP280;49381;49.338;8.794;2022-10-28T00:17:07;100996.81;;;14.51
63158;BMP280;49381;49.338;8.794;2022-10-28T00:19:10;100991.72;;;14.50
63158;BMP280;49381;49.338;8.794;2022-10-28T00:21:13;100986.66;;;14.47
63158;BMP280;49381;49.338;8.794;2022-10-28T00:23:13;100982.38;;;14.46
63158;BMP280;49381;49.338;8.794;2022-10-28T00:25:14;100996.84;;;14.47
63158;BMP280;49381;49.338;8.794;2022-10-28T00:27:14;100988.31;;;14.46
63158;BMP280;49381;49.338;8.794;2022-10-28T00:29:16;100992.59;;;14.49
63158;BMP280;49381;49.338;8.794;2022-10-28T00:31:22;100993.44;;;14.45
63158;BMP280;49381;49.338;8.794;2022-10-28T00:33:22;101002.75;;;14.35
63158;BMP280;49381;49.338;8.794;2022-10-28T00:35:23;101000.19;;;14.31
63158;BMP280;49381;49.338;8.794;2022-10-28T00:37:23;100999.38;;;14.32
63158;BMP280;49381;49.338;8.794;2022-10-28T00:39:25;101000.22;;;14.32
63158;BMP280;49381;49.338;8.794;2022-10-28T00:41:27;100991.72;;;14.38
63158;BMP280;49381;49.338;8.794;2022-10-28T00:43:36;101000.22;;;14.41
63158;BMP280;49381;49.338;8.794;2022-10-28T00:45:37;101000.25;;;14.43
63158;BMP280;49381;49.338;8.794;2022-10-28T00:47:46;101000.22;;;14.46
63158;BMP280;49381;49.338;8.794;2022-10-28T00:49:48;100996.81;;;14.41
63158;BMP280;49381;49.338;8.794;2022-10-28T00:51:52;100991.72;;;14.41
63158;BMP280;49381;49.338;8.794;2022-10-28T00:53:54;100992.59;;;14.37
63158;BMP280;49381;49.338;8.794;2022-10-28T00:55:55;100992.56;;;14.35
63158;BMP280;49381;49.338;8.794;2022-10-28T00:57:58;100990.88;;;14.33
63158;BMP280;49381;49.338;8.794;2022-10-28T01:00:01;100993.41;;;14.34
63158;BMP280;49381;49.338;8.794;2022-10-28T01:02:02;100994.25;;;14.35
63158;BMP280;49381;49.338;8.794;2022-10-28T01:04:04;100986.63;;;14.35
63158;BMP280;49381;49.338;8.794;2022-10-28T01:06:05;100985.78;;;14.37
63158;BMP280;49381;49.338;8.794;2022-10-28T01:08:06;100992.56;;;14.38
63158;BMP280;49381;49.338;8.794;2022-10-28T01:10:08;100989.16;;;14.41
63158;BMP280;49381;49.338;8.794;2022-10-28T01:12:15;100993.44;;;14.39
63158;BMP280;49381;49.338;8.794;2022-10-28T01:14:31;100993.44;;;14.42
63158;BMP280;49381;49.338;8.794;2022-10-28T01:16:39;100995.97;;;14.39
63158;BMP280;49381;49.338;8.794;2022-10-28T01:18:46;100991.72;;;14.38
63158;BMP280;49381;49.338;8.794;2022-10-28T01:21:05;100986.63;;;14.38
63158;BMP280;49381;49.338;8.794;2022-10-28T01:23:20;100987.47;;;14.41
63158;BMP280;49381;49.338;8.794;2022-10-28T01:25:48;100985.78;;;14.45
63158;BMP280;49381;49.338;8.794;2022-10-28T01:28:12;100985.78;;;14.39
63158;BMP280;49381;49.338;8.794;2022-10-28T01:30:16;100980.66;;;14.40
63158;BMP280;49381;49.338;8.794;2022-10-28T01:32:25;100984.91;;;14.40
63158;BMP280;49381;49.338;8.794;2022-10-28T01:34:30;100973.88;;;14.38
63158;BMP280;49381;49.338;8.794;2022-10-28T01:36:35;100973.88;;;14.38
63158;BMP280;49381;49.338;8.794;2022-10-28T01:38:47;100973.84;;;14.35
63158;BMP280;49381;49.338;8.794;2022-10-28T01:40:55;100974.69;;;14.31
63158;BMP280;49381;49.338;8.794;2022-10-28T01:43:04;100972.19;;;14.27
63158;BMP280;49381;49.338;8.794;2022-10-28T01:45:12;100979.81;;;14.31
63158;BMP280;49381;49.338;8.794;2022-10-28T01:47:15;100978.13;;;14.33
63158;BMP280;49381;49.338;8.794;2022-10-28T01:49:22;100978.09;;;14.30
63158;BMP280;49381;49.338;8.794;2022-10-28T01:51:28;100986.63;;;14.29
63158;BMP280;49381;49.338;8.794;2022-10-28T01:53:33;100984.91;;;14.31
63158;BMP280;49381;49.338;8.794;2022-10-28T01:55:37;100989.19;;;14.32
63158;BMP280;49381;49.338;8.794;2022-10-28T01:57:38;100995.97;;;14.32
63158;BMP280;49381;49.338;8.794;2022-10-28T01:59:40;101001.91;;;14.29
63158;BMP280;49381;49.338;8.794;2022-10-28T02:01:42;100995.09;;;14.30
63158;BMP280;49381;49.338;8.794;2022-10-28T02:03:44;100995.97;;;14.27
63158;BMP280;49381;49.338;8.794;2022-10-28T02:05:47;100996.81;;;14.29
63158;BMP280;49381;49.338;8.794;2022-10-28T02:07:50;100990.03;;;14.28
63158;BMP280;49381;49.338;8.794;2022-10-28T02:10:01;100977.25;;;14.28
63158;BMP280;49381;49.338;8.794;2022-10-28T02:12:17;100979.81;;;14.30
63158;BMP280;49381;49.338;8.794;2022-10-28T02:14:31;100978.94;;;14.26
63158;BMP280;49381;49.338;8.794;2022-10-28T02:16:40;100975.53;;;14.21
63158;BMP280;49381;49.338;8.794;2022-10-28T02:18:47;100965.38;;;14.27
63158;BMP280;49381;49.338;8.794;2022-10-28T02:20:52;100964.50;;;14.30
63158;BMP280;49381;49.338;8.794;2022-10-28T02:23:02;100960.28;;;14.33
63158;BMP280;49381;49.338;8.794;2022-10-28T02:25:10;100958.53;;;14.26
63158;BMP280;49381;49.338;8.794;2022-10-28T02:27:16;100969.63;;;14.22
63158;BMP280;49381;49.338;8.794;2022-10-28T02:29:25;100967.91;;;14.24
63158;BMP280;49381;49.338;8.794;2022-10-28T02:31:29;100956.84;;;14.24
63158;BMP280;49381;49.338;8.794;2022-10-28T02:33:34;100953.44;;;14.25
63158;BMP280;49381;49.338;8.794;2022-10-28T02:35:39;100955.16;;;14.26
63158;BMP280;49381;49.338;8.794;2022-10-28T02:37:44;100958.56;;;14.23
63158;BMP280;49381;49.338;8.794;2022-10-28T02:39:49;100960.25;;;14.26
63158;BMP280;49381;49.338;8.794;2022-10-28T02:41:54;100962.81;;;14.27
63158;BMP280;49381;49.338;8.794;2022-10-28T02:43:58;100959.41;;;14.30
63158;BMP280;49381;49.338;8.794;2022-10-28T02:46:00;100959.41;;;14.31
63158;BMP280;49381;49.338;8.794;2022-10-28T02:48:03;100962.81;;;14.30
63158;BMP280;49381;49.338;8.794;2022-10-28T02:50:07;100953.44;;;14.25
63158;BMP280;49381;49.338;8.794;2022-10-28T02:52:09;100961.09;;;14.26
63158;BMP280;49381;49.338;8.794;2022-10-28T02:54:14;100961.97;;;14.30
63158;BMP280;49381;49.338;8.794;2022-10-28T02:56:15;100948.34;;;14.25
63158;BMP280;49381;49.338;8.794;2022-10-28T02:58:16;100951.75;;;14.18
63158;BMP280;49381;49.338;8.794;2022-10-28T03:00:19;100950.91;;;14.17
63158;BMP280;49381;49.338;8.794;2022-10-28T03:02:20;100951.75;;;14.15
63158;BMP280;49381;49.338;8.794;2022-10-28T03:04:21;100940.69;;;14.14
63158;BMP280;49381;49.338;8.794;2022-10-28T03:06:22;100944.09;;;14.16
63158;BMP280;49381;49.338;8.794;2022-10-28T03:08:22;100948.34;;;14.19
63158;BMP280;49381;49.338;8.794;2022-10-28T03:10:24;100944.09;;;14.19
63158;BMP280;49381;49.338;8.794;2022-10-28T03:12:24;100955.13;;;14.21
63158;BMP280;49381;49.338;8.794;2022-10-28T03:14:24;100950.91;;;14.23
63158;BMP280;49381;49.338;8.794;2022-10-28T03:16:25;100947.50;;;14.23
63158;BMP280;49381;49.338;8.794;2022-10-28T03:18:25;100946.63;;;14.21
63158;BMP280;49381;49.338;8.794;2022-10-28T03:20:25;100945.81;;;14.23
63158;BMP280;49381;49.338;8.794;2022-10-28T03:22:26;100944.97;;;14.27
63158;BMP280;49381;49.338;8.794;2022-10-28T03:24:26;100954.31;;;14.30
63158;BMP280;49381;49.338;8.794;2022-10-28T03:26:28;100954.31;;;14.31
63158;BMP280;49381;49.338;8.794;2022-10-28T03:28:28;100950.94;;;14.32
63158;BMP280;49381;49.338;8.794;2022-10-28T03:30:28;100948.34;;;14.26
63158;BMP280;49381;49.338;8.794;2022-10-28T03:32:29;100950.91;;;14.26
63158;BMP280;49381;49.338;8.794;2022-10-28T03:34:29;100950.06;;;14.27
63158;BMP280;49381;49.338;8.794;2022-10-28T03:36:29;100947.53;;;14.33
63158;BMP280;49381;49.338;8.794;2022-10-28T03:38:30;100943.25;;;14.31
63158;BMP280;49381;49.338;8.794;2022-10-28T03:40:30;100932.22;;;14.30
63158;BMP280;49381;49.338;8.794;2022-10-28T03:42:32;100927.13;;;14.33
63158;BMP280;49381;49.338;8.794;2022-10-28T03:44:32;100920.31;;;14.29
63158;BMP280;49381;49.338;8.794;2022-10-28T03:46:32;100927.94;;;14.26
63158;BMP280;49381;49.338;8.794;2022-10-28T03:48:33;100922.84;;;14.25
63158;BMP280;49381;49.338;8.794;2022-10-28T03:50:33;100924.56;;;14.24
63158;BMP280;49381;49.338;8.794;2022-10-28T03:52:33;100921.16;;;14.22
63158;BMP280;49381;49.338;8.794;2022-10-28T03:54:34;100920.31;;;14.23
63158;BMP280;49381;49.338;8.794;2022-10-28T03:56:34;100911.78;;;14.21
63158;BMP280;49381;49.338;8.794;2022-10-28T03:58:36;100913.50;;;14.21
63158;BMP280;49381;49.338;8.794;2022-10-28T04:00:36;100916.06;;;14.24
63158;BMP280;49381;49.338;8.794;2022-10-28T04:02:36;100909.25;;;14.20
63158;BMP280;49381;49.338;8.794;2022-10-28T04:04:37;100905.84;;;14.25
63158;BMP280;49381;49.338;8.794;2022-10-28T04:06:37;100910.97;;;14.27
63158;BMP280;49381;49.338;8.794;2022-10-28T04:08:37;100908.41;;;14.31
63158;BMP280;49381;49.338;8.794;2022-10-28T04:10:38;100906.72;;;14.33
63158;BMP280;49381;49.338;8.794;2022-10-28T04:12:38;100907.56;;;14.33
63158;BMP280;49381;49.338;8.794;2022-10-28T04:14:40;100910.97;;;14.37
63158;BMP280;49381;49.338;8.794;2022-10-28T04:16:40;100913.53;;;14.38
63158;BMP280;49381;49.338;8.794;2022-10-28T04:18:40;100918.63;;;14.37
63158;BMP280;49381;49.338;8.794;2022-10-28T04:20:41;100917.75;;;14.36
63158;BMP280;49381;49.338;8.794;2022-10-28T04:22:41;100924.56;;;14.34
63158;BMP280;49381;49.338;8.794;2022-10-28T04:24:42;100927.13;;;14.34
63158;BMP280;49381;49.338;8.794;2022-10-28T04:26:42;100923.72;;;14.34
63158;BMP280;49381;49.338;8.794;2022-10-28T04:28:42;100921.16;;;14.35
63158;BMP280;49381;49.338;8.794;2022-10-28T04:30:45;100922.84;;;14.35
63158;BMP280;49381;49.338;8.794;2022-10-28T04:32:45;100917.75;;;14.36
63158;BMP280;49381;49.338;8.794;2022-10-28T04:34:46;100920.31;;;14.35
63158;BMP280;49381;49.338;8.794;2022-10-28T04:36:46;100913.53;;;14.32
63158;BMP280;49381;49.338;8.794;2022-10-28T04:38:46;100910.97;;;14.37
63158;BMP280;49381;49.338;8.794;2022-10-28T04:40:47;100893.13;;;14.38
63158;BMP280;49381;49.338;8.794;2022-10-28T04:42:47;100904.16;;;14.39
63158;BMP280;49381;49.338;8.794;2022-10-28T04:44:49;100893.13;;;14.38
63158;BMP280;49381;49.338;8.794;2022-10-28T04:46:51;100890.56;;;14.32
63158;BMP280;49381;49.338;8.794;2022-10-28T04:48:51;100891.41;;;14.33
63158;BMP280;49381;49.338;8.794;2022-10-28T04:50:51;100894.81;;;14.26
63158;BMP280;49381;49.338;8.794;2022-10-28T04:52:52;100888.00;;;14.30
63158;BMP280;49381;49.338;8.794;2022-10-28T04:54:52;100883.78;;;14.27
63158;BMP280;49381;49.338;8.794;2022-10-28T04:56:53;100893.97;;;14.27
63158;BMP280;49381;49.338;8.794;2022-10-28T04:58:53;100899.03;;;14.21
63158;BMP280;49381;49.338;8.794;2022-10-28T05:00:56;100893.13;;;14.22
63158;BMP280;49381;49.338;8.794;2022-10-28T05:03:13;100886.31;;;14.27
63158;BMP280;49381;49.338;8.794;2022-10-28T05:05:14;100885.47;;;14.24
63158;BMP280;49381;49.338;8.794;2022-10-28T05:07:20;100880.38;;;14.28
63158;BMP280;49381;49.338;8.794;2022-10-28T05:09:48;100872.72;;;14.25
63158;BMP280;49381;49.338;8.794;2022-10-28T05:11:48;100882.06;;;14.25
63158;BMP280;49381;49.338;8.794;2022-10-28T05:13:48;100889.72;;;14.23
63158;BMP280;49381;49.338;8.794;2022-10-28T05:15:49;100884.59;;;14.26
63158;BMP280;49381;49.338;8.794;2022-10-28T05:17:49;100885.47;;;14.28
63158;BMP280;49381;49.338;8.794;2022-10-28T05:19:54;100894.81;;;14.32
63158;BMP280;49381;49.338;8.794;2022-10-28T05:21:55;100893.09;;;14.31
63158;BMP280;49381;49.338;8.794;2022-10-28T05:23:55;100898.22;;;14.30
63158;BMP280;49381;49.338;8.794;2022-10-28T05:25:55;100888.88;;;14.33
63158;BMP280;49381;49.338;8.794;2022-10-28T05:27:59;100884.63;;;14.32
63158;BMP280;49381;49.338;8.794;2022-10-28T05:30:46;100894.81;;;14.32
63158;BMP280;49381;49.338;8.794;2022-10-28T05:33:01;100905.84;;;14.31
63158;BMP280;49381;49.338;8.794;2022-10-28T05:35:16;100891.44;;;14.32
63158;BMP280;49381;49.338;8.794;2022-10-28T05:39:53;100897.38;;;14.22
63158;BMP280;49381;49.338;8.794;2022-10-28T05:41:53;100897.38;;;14.19
63158;BMP280;49381;49.338;8.794;2022-10-28T05:43:53;100896.50;;;14.21
63158;BMP280;49381;49.338;8.794;2022-10-28T05:45:54;100894.81;;;14.17
63158;BMP280;49381;49.338;8.794;2022-10-28T05:47:55;100892.25;;;14.20
63158;BMP280;49381;49.338;8.794;2022-10-28T05:49:56;100903.31;;;14.21
63158;BMP280;49381;49.338;8.794;2022-10-28T05:51:57;100904.16;;;14.21
63158;BMP280;49381;49.338;8.794;2022-10-28T05:53:58;100893.09;;;14.25
63158;BMP280;49381;49.338;8.794;2022-10-28T05:56:03;100891.41;;;14.24
63158;BMP280;49381;49.338;8.794;2022-10-28T05:58:04;100897.38;;;14.23
63158;BMP280;49381;49.338;8.794;2022-10-28T06:00:05;100892.25;;;14.23
63158;BMP280;49381;49.338;8.794;2022-10-28T06:02:10;100881.22;;;14.26
63158;BMP280;49381;49.338;8.794;2022-10-28T06:04:12;100899.06;;;14.27
63158;BMP280;49381;49.338;8.794;2022-10-28T06:06:14;100896.50;;;14.24
63158;BMP280;49381;49.338;8.794;2022-10-28T06:08:16;100894.81;;;14.23
63158;BMP280;49381;49.338;8.794;2022-10-28T06:10:16;100902.47;;;14.25
63158;BMP280;49381;49.338;8.794;2022-10-28T06:12:17;100898.22;;;14.24
63158;BMP280;49381;49.338;8.794;2022-10-28T06:14:17;100901.63;;;14.24
63158;BMP280;49381;49.338;8.794;2022-10-28T06:16:17;100907.56;;;14.23
63158;BMP280;49381;49.338;8.794;2022-10-28T06:18:18;100895.66;;;14.21
63158;BMP280;49381;49.338;8.794;2022-10-28T06:20:19;100894.81;;;14.20
63158;BMP280;49381;49.338;8.794;2022-10-28T06:22:19;100900.78;;;14.22
63158;BMP280;49381;49.338;8.794;2022-10-28T06:24:21;100895.66;;;14.22
63158;BMP280;49381;49.338;8.794;2022-10-28T06:26:21;100898.22;;;14.22
63158;BMP280;49381;49.338;8.794;2022-10-28T06:28:21;100893.09;;;14.19
63158;BMP280;49381;49.338;8.794;2022-10-28T06:30:22;100898.22;;;14.19
63158;BMP280;49381;49.338;8.794;2022-10-28T06:32:48;100896.50;;;14.18
63158;BMP280;49381;49.338;8.794;2022-10-28T06:35:15;100896.50;;;14.18
63158;BMP280;49381;49.338;8.794;2022-10-28T06:38:05;100888.84;;;14.20
63158;BMP280;49381;49.338;8.794;2022-10-28T06:48:12;100894.81;;;14.32
63158;BMP280;49381;49.338;8.794;2022-10-28T06:50:53;100909.28;;;14.27
63158;BMP280;49381;49.338;8.794;2022-10-28T06:54:01;100914.34;;;14.26
63158;BMP280;49381;49.338;8.794;2022-10-28T06:56:42;100916.94;;;14.27
63158;BMP280;49381;49.338;8.794;2022-10-28T06:59:14;100922.00;;;14.36
63158;BMP280;49381;49.338;8.794;2022-10-28T07:01:15;100926.28;;;14.37
63158;BMP280;49381;49.338;8.794;2022-10-28T07:03:45;100911.81;;;14.45
63158;BMP280;49381;49.338;8.794;2022-10-28T07:14:10;100941.56;;;14.55
63158;BMP280;49381;49.338;8.794;2022-10-28T07:19:02;100945.81;;;14.64
63158;BMP280;49381;49.338;8.794;2022-10-28T07:21:02;100951.78;;;14.66
63158;BMP280;49381;49.338;8.794;2022-10-28T07:23:03;100950.91;;;14.66
63158;BMP280;49381;49.338;8.794;2022-10-28T07:25:04;100946.66;;;14.71
63158;BMP280;49381;49.338;8.794;2022-10-28T07:27:06;100946.66;;;14.74
63158;BMP280;49381;49.338;8.794;2022-10-28T07:29:07;100947.50;;;14.76
63158;BMP280;49381;49.338;8.794;2022-10-28T07:31:07;100950.94;;;14.72
63158;BMP280;49381;49.338;8.794;2022-10-28T07:33:07;100943.28;;;14.72
63158;BMP280;49381;49.338;8.794;2022-10-28T07:35:09;100947.53;;;14.77
63158;BMP280;49381;49.338;8.794;2022-10-28T07:37:10;100956.84;;;14.81
63158;BMP280;49381;49.338;8.794;2022-10-28T07:39:11;100956.84;;;14.81
63158;BMP280;49381;49.338;8.794;2022-10-28T07:41:11;100961.13;;;14.83
63158;BMP280;49381;49.338;8.794;2022-10-28T07:43:11;100954.28;;;14.85
63158;BMP280;49381;49.338;8.794;2022-10-28T07:45:12;100959.41;;;14.84
63158;BMP280;49381;49.338;8.794;2022-10-28T07:47:12;100960.25;;;14.86
63158;BMP280;49381;49.338;8.794;2022-10-28T07:49:13;100962.81;;;14.87
63158;BMP280;49381;49.338;8.794;2022-10-28T07:51:15;100967.06;;;14.90
63158;BMP280;49381;49.338;8.794;2022-10-28T07:53:15;100967.06;;;14.93
63158;BMP280;49381;49.338;8.794;2022-10-28T07:55:16;100965.38;;;14.92
63158;BMP280;49381;49.338;8.794;2022-10-28T07:57:16;100969.63;;;14.93
63158;BMP280;49381;49.338;8.794;2022-10-28T07:59:16;100968.75;;;14.95
63158;BMP280;49381;49.338;8.794;2022-10-28T08:01:18;100964.50;;;14.96
63158;BMP280;49381;49.338;8.794;2022-10-28T08:03:19;100925.38;;;14.88
63158;BMP280;49381;49.338;8.794;2022-10-28T08:05:20;100944.94;;;14.87
63158;BMP280;49381;49.338;8.794;2022-10-28T08:07:22;100971.31;;;14.88
63158;BMP280;49381;49.338;8.794;2022-10-28T08:09:23;100963.63;;;14.95
63158;BMP280;49381;49.338;8.794;2022-10-28T08:11:23;100949.19;;;14.99
63158;BMP280;49381;49.338;8.794;2022-10-28T08:13:24;100956.00;;;14.94
63158;BMP280;49381;49.338;8.794;2022-10-28T08:15:24;100961.94;;;14.96
63158;BMP280;49381;49.338;8.794;2022-10-28T08:25:19;100960.25;;;15.14
63158;BMP280;49381;49.338;8.794;2022-10-28T08:27:19;100959.41;;;15.16
63158;BMP280;49381;49.338;8.794;2022-10-28T08:29:20;100965.38;;;15.04
63158;BMP280;49381;49.338;8.794;2022-10-28T08:31:20;100965.34;;;15.09
63158;BMP280;49381;49.338;8.794;2022-10-28T08:33:20;100970.47;;;15.17
63158;BMP280;49381;49.338;8.794;2022-10-28T08:35:22;100962.78;;;15.21
63158;BMP280;49381;49.338;8.794;2022-10-28T08:37:23;100953.41;;;15.23
63158;BMP280;49381;49.338;8.794;2022-10-28T08:39:24;100957.66;;;15.24
63158;BMP280;49381;49.338;8.794;2022-10-28T08:44:44;100937.19;;;15.34
63158;BMP280;49381;49.338;8.794;2022-10-28T08:49:31;100936.34;;;15.37
63158;BMP280;49381;49.338;8.794;2022-10-28T08:50:53;100962.69;;;15.45
63158;BMP280;49381;49.338;8.794;2022-10-28T08:53:35;100937.97;;;15.53
63158;BMP280;49381;49.338;8.794;2022-10-28T08:58:07;100957.56;;;15.57
63158;BMP280;49381;49.338;8.794;2022-10-28T09:00:17;100961.78;;;15.62
63158;BMP280;49381;49.338;8.794;2022-10-28T09:02:20;100954.13;;;15.66
63158;BMP280;49381;49.338;8.794;2022-10-28T09:04:25;100948.97;;;15.72
63158;BMP280;49381;49.338;8.794;2022-10-28T09:06:29;100943.84;;;15.72
63158;BMP280;49381;49.338;8.794;2022-10-28T09:08:32;100942.97;;;15.79
63158;BMP280;49381;49.338;8.794;2022-10-28T09:13:09;100959.94;;;15.90
63158;BMP280;49381;49.338;8.794;2022-10-28T09:15:22;100951.41;;;15.90
63158;BMP280;49381;49.338;8.794;2022-10-28T09:17:30;100957.38;;;15.92
63158;BMP280;49381;49.338;8.794;2022-10-28T09:19:42;100953.06;;;15.98
63158;BMP280;49381;49.338;8.794;2022-10-28T09:21:47;100959.84;;;16.05
63158;BMP280;49381;49.338;8.794;2022-10-28T09:23:54;100949.63;;;16.12
63158;BMP280;49381;49.338;8.794;2022-10-28T09:26:07;100943.63;;;16.13
63158;BMP280;49381;49.338;8.794;2022-10-28T09:28:23;100929.16;;;16.12
63158;BMP280;49381;49.338;8.794;2022-10-28T09:30:30;100923.13;;;16.19
63158;BMP280;49381;49.338;8.794;2022-10-28T09:32:36;100935.03;;;16.23
63158;BMP280;49381;49.338;8.794;2022-10-28T09:34:43;100934.16;;;16.27
63158;BMP280;49381;49.338;8.794;2022-10-28T09:36:48;100928.13;;;16.34
63158;BMP280;49381;49.338;8.794;2022-10-28T09:38:51;100924.72;;;16.35
63158;BMP280;49381;49.338;8.794;2022-10-28T09:40:59;100924.69;;;16.38
63158;BMP280;49381;49.338;8.794;2022-10-28T09:43:05;100919.56;;;16.42
63158;BMP280;49381;49.338;8.794;2022-10-28T09:45:12;100904.19;;;16.44
63158;BMP280;49381;49.338;8.794;2022-10-28T09:47:16;100909.34;;;16.38
63158;BMP280;49381;49.338;8.794;2022-10-28T09:49:21;100929.78;;;16.42
63158;BMP280;49381;49.338;8.794;2022-10-28T09:51:27;100953.66;;;16.46
63158;BMP280;49381;49.338;8.794;2022-10-28T09:53:38;100961.44;;;16.25
63158;BMP280;49381;49.338;8.794;2022-10-28T09:55:39;100952.03;;;16.33
63158;BMP280;49381;49.338;8.794;2022-10-28T09:57:39;100947.72;;;16.41
63158;BMP280;49381;49.338;8.794;2022-10-28T09:59:40;100938.28;;;16.46
63158;BMP280;49381;49.338;8.794;2022-10-28T10:01:42;100929.69;;;16.54
63158;BMP280;49381;49.338;8.794;2022-10-28T10:03:43;100945.03;;;16.54
63158;BMP280;49381;49.338;8.794;2022-10-28T10:05:47;100940.75;;;16.55
63158;BMP280;49381;49.338;8.794;2022-10-28T10:07:51;100939.84;;;16.60
63158;BMP280;49381;49.338;8.794;2022-10-28T10:09:52;100938.97;;;16.64
63158;BMP280;49381;49.338;8.794;2022-10-28T10:11:54;100944.09;;;16.64
63158;BMP280;49381;49.338;8.794;2022-10-28T10:13:56;100938.97;;;16.64
63158;BMP280;49381;49.338;8.794;2022-10-28T10:16:00;100937.22;;;16.69
63158;BMP280;49381;49.338;8.794;2022-10-28T10:18:05;100936.38;;;16.71
63158;BMP280;49381;49.338;8.794;2022-10-28T10:20:08;100935.50;;;16.72
63158;BMP280;49381;49.338;8.794;2022-10-28T10:22:28;100932.91;;;16.74
63158;BMP280;49381;49.338;8.794;2022-10-28T10:24:30;100938.88;;;16.74
63158;BMP280;49381;49.338;8.794;2022-10-28T10:26:31;100941.44;;;16.76
63158;BMP280;49381;49.338;8.794;2022-10-28T10:28:34;100934.56;;;16.81
63158;BMP280;49381;49.338;8.794;2022-10-28T10:30:38;100934.56;;;16.82
63158;BMP280;49381;49.338;8.794;2022-10-28T10:32:45;100940.50;;;16.84
63158;BMP280;49381;49.338;8.794;2022-10-28T10:34:53;100942.22;;;16.85
63158;BMP280;49381;49.338;8.794;2022-10-28T10:36:55;100933.66;;;16.86
63158;BMP280;49381;49.338;8.794;2022-10-28T10:38:57;100943.78;;;16.95
63158;BMP280;49381;49.338;8.794;2022-10-28T10:40:58;100936.06;;;16.99
63158;BMP280;49381;49.338;8.794;2022-10-28T10:43:17;100936.91;;;17.06
63158;BMP280;49381;49.338;8.794;2022-10-28T10:45:21;100936.00;;;17.11
63158;BMP280;49381;49.338;8.794;2022-10-28T10:47:22;100934.22;;;17.14
63158;BMP280;49381;49.338;8.794;2022-10-28T10:49:23;100926.53;;;17.17
63158;BMP280;49381;49.338;8.794;2022-10-28T10:51:26;100930.78;;;17.20
63158;BMP280;49381;49.338;8.794;2022-10-28T10:53:28;100930.72;;;17.23
63158;BMP280;49381;49.338;8.794;2022-10-28T10:55:35;100932.38;;;17.28
63158;BMP280;49381;49.338;8.794;2022-10-28T10:57:35;100926.38;;;17.31
63158;BMP280;49381;49.338;8.794;2022-10-28T10:59:36;100937.41;;;17.34
63158;BMP280;49381;49.338;8.794;2022-10-28T11:01:38;100915.16;;;17.39
63158;BMP280;49381;49.338;8.794;2022-10-28T11:03:48;100916.81;;;17.43
63158;BMP280;49381;49.338;8.794;2022-10-28T11:05:50;100921.03;;;17.48
63158;BMP280;49381;49.338;8.794;2022-10-28T11:07:53;100911.63;;;17.49
63158;BMP280;49381;49.338;8.794;2022-10-28T11:09:54;100909.88;;;17.52
63158;BMP280;49381;49.338;8.794;2022-10-28T11:11:55;100908.16;;;17.53
63158;BMP280;49381;49.338;8.794;2022-10-28T11:14:02;100906.34;;;17.59
63158;BMP280;49381;49.338;8.794;2022-10-28T11:16:04;100909.72;;;17.62
63158;BMP280;49381;49.338;8.794;2022-10-28T11:18:16;100900.28;;;17.67
63158;BMP280;49381;49.338;8.794;2022-10-28T11:20:22;100896.75;;;17.74
63158;BMP280;49381;49.338;8.794;2022-10-28T11:22:38;100895.00;;;17.78
63158;BMP280;49381;49.338;8.794;2022-10-28T11:25:00;100902.63;;;17.82
63158;BMP280;49381;49.338;8.794;2022-10-28T11:27:14;100887.22;;;17.85
63158;BMP280;49381;49.338;8.794;2022-10-28T11:29:18;100890.56;;;17.90
63158;BMP280;49381;49.338;8.794;2022-10-28T11:31:43;100888.81;;;17.92
63158;BMP280;49381;49.338;8.794;2022-10-28T11:33:54;100881.94;;;17.95
63158;BMP280;49381;49.338;8.794;2022-10-28T11:36:10;100875.03;;;18.00
63158;BMP280;49381;49.338;8.794;2022-10-28T11:38:28;100864.72;;;18.03
63158;BMP280;49381;49.338;8.794;2022-10-28T11:40:36;100868.97;;;18.06
63158;BMP280;49381;49.338;8.794;2022-10-28T11:42:52;100880.84;;;18.11
63158;BMP280;49381;49.338;8.794;2022-10-28T11:45:03;100877.38;;;18.15
63158;BMP280;49381;49.338;8.794;2022-10-28T11:47:22;100873.00;;;18.21
63158;BMP280;49381;49.338;8.794;2022-10-28T11:50:01;100865.19;;;18.27
63158;BMP280;49381;49.338;8.794;2022-10-28T11:52:15;100867.66;;;18.33
63158;BMP280;49381;49.338;8.794;2022-10-28T11:54:28;100869.25;;;18.40
63158;BMP280;49381;49.338;8.794;2022-10-28T11:56:36;100872.59;;;18.45
63158;BMP280;49381;49.338;8.794;2022-10-28T11:58:43;100868.22;;;18.50
63158;BMP280;49381;49.338;8.794;2022-10-28T12:00:55;100863.03;;;18.54
63158;BMP280;49381;49.338;8.794;2022-10-28T12:03:04;100854.28;;;18.62
63158;BMP280;49381;49.338;8.794;2022-10-28T12:05:14;100861.88;;;18.70
63158;BMP280;49381;49.338;8.794;2022-10-28T12:07:33;100860.06;;;18.73
63158;BMP280;49381;49.338;8.794;2022-10-28T12:09:47;100854.09;;;18.74
63158;BMP280;49381;49.338;8.794;2022-10-28T12:12:00;100845.44;;;18.78
63158;BMP280;49381;49.338;8.794;2022-10-28T12:14:10;100846.19;;;18.83
63158;BMP280;49381;49.338;8.794;2022-10-28T12:16:16;100847.91;;;18.86
63158;BMP280;49381;49.338;8.794;2022-10-28T12:18:26;100838.44;;;18.88
63158;BMP280;49381;49.338;8.794;2022-10-28T12:20:31;100842.59;;;18.93
63158;BMP280;49381;49.338;8.794;2022-10-28T12:22:39;100837.22;;;19.06
63158;BMP280;49381;49.338;8.794;2022-10-28T12:24:45;100831.16;;;19.09
63158;BMP280;49381;49.338;8.794;2022-10-28T12:26:50;100834.47;;;19.15
63158;BMP280;49381;49.338;8.794;2022-10-28T12:28:54;100835.22;;;19.18
63158;BMP280;49381;49.338;8.794;2022-10-28T12:30:57;100824.84;;;19.24